Time;durP1;ratioP1;P1;durP2;ratioP2;P2;SDS_P1;SDS_P2;PMS_P1;PMS_P2;Temp;Humidity;BMP_temperature;BMP_pressure;BME280_temperature;BME280_humidity;BME280_pressure;Samples;Min_cycle;Max_cycle;Signal;HPM_P1;HPM_P2
2024/01/31 00:01:38;;;;;;;10.80;8.00;;;;;;;;;;43282;284;3028534;-33
2024/01/31 00:03:28;;;;;;;11.40;8.30;;;;;;;;;;43340;284;3028625;-33
2024/01/31 00:05:16;;;;;;;10.00;8.10;;;;;;;;;;43329;280;3028217;-33
2024/01/31 00:07:04;;;;;;;9.80;8.00;;;;;;;;;;43270;281;3028687;-33
2024/01/31 00:08:50;;;;;;;10.60;7.60;;;;;;;;;;43302;280;3027924;-33
2024/01/31 00:10:35;;;;;;;10.70;8.00;;;;;;;;;;43306;293;3027817;-33
2024/01/31 00:12:20;;;;;;;10.50;8.20;;;;;;;;;;43314;280;3028024;-33
2024/01/31 00:14:07;;;;;;;9.70;7.30;;;;;;;;;;43291;284;3028669;-33
2024/01/31 00:16:00;;;;;;;10.70;8.00;;;;;;;;;;43302;276;3027928;-34
2024/01/31 00:17:47;;;;;;;10.60;8.30;;;;;;;;;;43295;284;3034334;-33
2024/01/31 00:19:32;;;;;;;10.20;7.80;;;;;;;;;;43292;284;3028569;-33
2024/01/31 00:21:20;;;;;;;10.70;7.90;;;;;;;;;;43304;284;3028592;-33
2024/01/31 00:23:07;;;;;;;10.50;8.40;;;;;;;;;;43308;284;3028725;-32
2024/01/31 00:24:53;;;;;;;10.10;7.50;;;;;;;;;;43330;284;3028271;-32
2024/01/31 00:26:38;;;;;;;9.90;7.50;;;;;;;;;;43302;292;3029723;-32
2024/01/31 00:28:29;;;;;;;11.00;7.80;;;;;;;;;;43319;292;3034871;-32
2024/01/31 00:30:17;;;;;;;10.10;7.80;;;;;;;;;;43285;292;3029982;-32
2024/01/31 00:32:02;;;;;;;10.00;7.70;;;;;;;;;;43329;284;3029119;-32
2024/01/31 00:33:49;;;;;;;9.80;7.50;;;;;;;;;;43302;284;3027987;-32
2024/01/31 00:35:34;;;;;;;9.70;7.70;;;;;;;;;;43288;292;3028644;-32
2024/01/31 00:37:22;;;;;;;10.00;7.60;;;;;;;;;;43302;281;3028226;-32
2024/01/31 00:39:08;;;;;;;10.00;7.70;;;;;;;;;;43419;284;3028178;-32
2024/01/31 00:40:54;;;;;;;10.40;8.10;;;;;;;;;;43299;276;3028907;-32
2024/01/31 00:42:42;;;;;;;9.90;7.90;;;;;;;;;;43312;284;3028212;-32
2024/01/31 00:44:28;;;;;;;10.20;8.00;;;;;;;;;;43503;284;3028541;-32
2024/01/31 00:46:18;;;;;;;9.70;7.50;;;;;;;;;;43326;284;3028321;-32
2024/01/31 00:48:06;;;;;;;10.10;7.40;;;;;;;;;;43311;284;3028278;-32
2024/01/31 00:49:52;;;;;;;10.40;7.40;;;;;;;;;;43310;284;3028241;-32
2024/01/31 00:51:38;;;;;;;9.40;7.50;;;;;;;;;;43315;284;3027991;-32
2024/01/31 00:53:23;;;;;;;9.90;7.60;;;;;;;;;;43304;277;3028826;-32
2024/01/31 00:55:09;;;;;;;9.80;7.10;;;;;;;;;;43300;284;3028345;-32
2024/01/31 00:56:54;;;;;;;9.70;7.70;;;;;;;;;;43472;287;3028490;-32
2024/01/31 00:58:42;;;;;;;10.40;7.70;;;;;;;;;;43278;284;3028699;-32
2024/01/31 01:00:28;;;;;;;8.50;7.00;;;;;;;;;;43326;284;3027500;-32
2024/01/31 01:02:13;;;;;;;9.60;7.20;;;;;;;;;;43330;284;3028370;-32
2024/01/31 01:03:58;;;;;;;9.50;7.20;;;;;;;;;;43422;292;3027613;-32
2024/01/31 01:05:44;;;;;;;10.00;7.60;;;;;;;;;;43301;284;3028469;-32
2024/01/31 01:07:31;;;;;;;10.10;7.20;;;;;;;;;;43293;284;3028585;-32
2024/01/31 01:09:18;;;;;;;9.40;7.40;;;;;;;;;;43302;284;3034207;-32
2024/01/31 01:11:04;;;;;;;9.00;7.30;;;;;;;;;;43298;284;3028014;-32
2024/01/31 01:12:49;;;;;;;10.10;7.20;;;;;;;;;;43320;281;3028405;-32
2024/01/31 01:14:36;;;;;;;9.20;7.10;;;;;;;;;;43331;284;3028295;-32
2024/01/31 01:16:21;;;;;;;8.90;6.80;;;;;;;;;;43293;284;3027866;-32
2024/01/31 01:18:07;;;;;;;9.60;7.10;;;;;;;;;;43276;284;3029794;-32
2024/01/31 01:19:52;;;;;;;9.10;7.00;;;;;;;;;;43553;292;3027591;-32
2024/01/31 01:21:38;;;;;;;9.30;7.20;;;;;;;;;;43292;284;3029370;-32
2024/01/31 01:23:23;;;;;;;9.20;7.30;;;;;;;;;;43319;284;3028171;-32
2024/01/31 01:25:10;;;;;;;9.40;7.30;;;;;;;;;;43296;284;3028686;-32
2024/01/31 01:26:55;;;;;;;9.10;7.00;;;;;;;;;;43801;281;3029843;-32
2024/01/31 01:28:40;;;;;;;9.10;7.00;;;;;;;;;;43159;286;3028053;-32
2024/01/31 01:30:25;;;;;;;9.40;7.00;;;;;;;;;;43303;284;3028461;-32
2024/01/31 01:32:10;;;;;;;9.50;7.10;;;;;;;;;;43325;292;3027672;-32
2024/01/31 01:33:55;;;;;;;9.30;7.00;;;;;;;;;;43311;284;3028146;-32
2024/01/31 01:35:41;;;;;;;9.20;7.00;;;;;;;;;;43313;276;3027808;-32
2024/01/31 01:37:27;;;;;;;9.00;6.90;;;;;;;;;;43354;276;3028561;-32
2024/01/31 01:39:12;;;;;;;8.70;6.90;;;;;;;;;;43303;284;3027698;-32
2024/01/31 01:40:59;;;;;;;9.20;6.80;;;;;;;;;;43324;284;3028172;-32
2024/01/31 01:42:44;;;;;;;8.20;6.40;;;;;;;;;;43311;284;3028384;-32
2024/01/31 01:44:33;;;;;;;9.20;6.80;;;;;;;;;;43280;285;3028116;-32
2024/01/31 01:46:22;;;;;;;8.90;7.30;;;;;;;;;;43275;285;3028241;-32
2024/01/31 01:48:08;;;;;;;8.70;6.90;;;;;;;;;;43272;281;3028779;-32
2024/01/31 01:49:53;;;;;;;8.10;6.60;;;;;;;;;;43365;294;3028641;-32
2024/01/31 01:51:39;;;;;;;8.40;6.70;;;;;;;;;;43267;281;3028736;-32
2024/01/31 01:53:26;;;;;;;9.10;6.80;;;;;;;;;;43288;281;3029275;-32
2024/01/31 01:55:13;;;;;;;9.10;7.10;;;;;;;;;;43264;285;3028350;-32
2024/01/31 01:56:59;;;;;;;8.80;6.70;;;;;;;;;;43238;277;3028168;-32
2024/01/31 01:58:50;;;;;;;8.60;6.40;;;;;;;;;;43797;285;3028485;-32
2024/01/31 02:00:36;;;;;;;8.70;6.50;;;;;;;;;;43275;281;3035323;-32
2024/01/31 02:02:21;;;;;;;9.50;6.90;;;;;;;;;;43315;285;3029381;-32
2024/01/31 02:04:10;;;;;;;8.60;6.70;;;;;;;;;;43278;289;3028396;-32
2024/01/31 02:05:58;;;;;;;8.70;6.70;;;;;;;;;;43270;285;3029778;-32
2024/01/31 02:07:44;;;;;;;8.80;6.80;;;;;;;;;;43632;281;3028955;-32
2024/01/31 02:09:29;;;;;;;8.80;6.60;;;;;;;;;;43236;293;3027730;-32
2024/01/31 02:11:14;;;;;;;8.30;6.60;;;;;;;;;;43398;285;3028173;-32
2024/01/31 02:13:00;;;;;;;8.90;6.60;;;;;;;;;;43280;273;3028531;-32
2024/01/31 02:14:47;;;;;;;8.60;6.70;;;;;;;;;;43290;289;3028019;-32
2024/01/31 02:16:32;;;;;;;8.80;6.80;;;;;;;;;;43339;284;3027955;-32
2024/01/31 02:18:18;;;;;;;8.60;6.50;;;;;;;;;;43305;284;3028614;-32
2024/01/31 02:20:04;;;;;;;8.80;6.20;;;;;;;;;;43292;281;3028267;-32
2024/01/31 02:21:54;;;;;;;8.40;6.40;;;;;;;;;;43589;273;3028622;-32
2024/01/31 02:23:39;;;;;;;8.70;6.30;;;;;;;;;;43310;284;3028100;-32
2024/01/31 02:25:24;;;;;;;8.40;6.80;;;;;;;;;;43294;284;3028104;-32
2024/01/31 02:27:11;;;;;;;7.80;6.20;;;;;;;;;;43307;277;3028534;-32
2024/01/31 02:28:55;;;;;;;8.30;6.60;;;;;;;;;;43340;281;3027567;-32
2024/01/31 02:30:40;;;;;;;8.30;6.30;;;;;;;;;;43312;284;3029208;-32
2024/01/31 02:32:25;;;;;;;8.20;6.30;;;;;;;;;;43305;284;3028418;-32
2024/01/31 02:34:10;;;;;;;8.90;6.50;;;;;;;;;;43288;284;3028563;-32
2024/01/31 02:35:58;;;;;;;8.90;6.40;;;;;;;;;;43317;281;3028160;-32
2024/01/31 02:37:46;;;;;;;8.40;6.40;;;;;;;;;;43313;269;3028637;-32
2024/01/31 02:39:33;;;;;;;8.60;6.60;;;;;;;;;;43297;284;3028328;-32
2024/01/31 02:41:18;;;;;;;8.80;6.30;;;;;;;;;;43272;284;3033554;-32
2024/01/31 02:43:06;;;;;;;8.60;6.60;;;;;;;;;;43328;284;3028486;-32
2024/01/31 02:44:53;;;;;;;7.50;6.00;;;;;;;;;;43306;284;3029175;-32
2024/01/31 02:46:39;;;;;;;7.80;6.10;;;;;;;;;;43313;281;3029464;-32
2024/01/31 02:48:24;;;;;;;8.40;6.50;;;;;;;;;;43344;284;3028841;-32
2024/01/31 02:50:11;;;;;;;8.40;6.30;;;;;;;;;;43300;284;3028044;-32
2024/01/31 02:51:56;;;;;;;8.40;5.90;;;;;;;;;;43632;284;3034011;-32
2024/01/31 02:53:41;;;;;;;8.10;6.00;;;;;;;;;;43322;284;3027756;-32
2024/01/31 02:55:29;;;;;;;8.40;6.10;;;;;;;;;;43295;284;3029068;-32
2024/01/31 02:57:14;;;;;;;8.40;6.10;;;;;;;;;;43327;284;3028475;-32
2024/01/31 02:58:59;;;;;;;8.10;6.30;;;;;;;;;;43315;284;3027856;-32
2024/01/31 03:00:45;;;;;;;8.30;6.40;;;;;;;;;;43277;293;3027556;-32
2024/01/31 03:02:30;;;;;;;8.00;6.10;;;;;;;;;;43313;284;3030412;-32
2024/01/31 03:04:15;;;;;;;7.80;6.00;;;;;;;;;;43294;284;3028536;-32
2024/01/31 03:06:04;;;;;;;7.80;6.10;;;;;;;;;;43317;284;3029253;-32
2024/01/31 03:07:52;;;;;;;8.00;5.80;;;;;;;;;;43923;280;3028591;-32
2024/01/31 03:09:37;;;;;;;7.90;5.90;;;;;;;;;;43692;281;3027886;-32
2024/01/31 03:11:25;;;;;;;8.30;6.50;;;;;;;;;;43285;284;3028735;-32
2024/01/31 03:13:14;;;;;;;8.20;6.10;;;;;;;;;;43290;277;3029461;-32
2024/01/31 03:15:00;;;;;;;7.60;5.70;;;;;;;;;;43341;293;3028611;-32
2024/01/31 03:16:45;;;;;;;7.80;6.00;;;;;;;;;;43314;284;3028156;-32
2024/01/31 03:18:31;;;;;;;8.20;6.10;;;;;;;;;;43316;284;3027593;-32
2024/01/31 03:20:17;;;;;;;8.00;6.00;;;;;;;;;;43319;281;3027946;-32
2024/01/31 03:22:05;;;;;;;7.90;5.80;;;;;;;;;;43311;284;3028233;-32
2024/01/31 03:23:50;;;;;;;8.40;6.20;;;;;;;;;;43312;281;3028468;-32
2024/01/31 03:25:37;;;;;;;7.90;5.80;;;;;;;;;;43310;281;3028782;-32
2024/01/31 03:27:24;;;;;;;7.90;6.00;;;;;;;;;;43299;284;3028148;-32
2024/01/31 03:29:10;;;;;;;8.40;6.10;;;;;;;;;;43309;284;3028804;-32
2024/01/31 03:30:57;;;;;;;7.60;5.90;;;;;;;;;;43196;286;3028789;-32
2024/01/31 03:32:44;;;;;;;7.50;5.80;;;;;;;;;;43270;284;3034245;-32
2024/01/31 03:34:31;;;;;;;8.10;5.90;;;;;;;;;;43298;280;3028347;-33
2024/01/31 03:36:18;;;;;;;7.90;6.10;;;;;;;;;;43315;284;3028257;-32
2024/01/31 03:38:04;;;;;;;7.60;6.10;;;;;;;;;;43298;284;3028929;-32
2024/01/31 03:39:49;;;;;;;8.10;6.10;;;;;;;;;;43327;284;3028304;-32
2024/01/31 03:41:34;;;;;;;7.80;6.00;;;;;;;;;;43291;284;3028360;-32
2024/01/31 03:43:21;;;;;;;8.00;6.20;;;;;;;;;;43309;284;3034336;-32
2024/01/31 03:45:10;;;;;;;8.30;5.90;;;;;;;;;;43333;284;3027912;-32
2024/01/31 03:46:56;;;;;;;8.40;5.90;;;;;;;;;;43605;293;3028686;-32
2024/01/31 03:48:43;;;;;;;7.40;5.70;;;;;;;;;;43308;284;3028797;-32
2024/01/31 03:50:32;;;;;;;8.00;5.60;;;;;;;;;;43293;284;3027861;-32
2024/01/31 03:52:20;;;;;;;7.40;5.70;;;;;;;;;;43280;281;3028598;-32
2024/01/31 03:54:06;;;;;;;7.70;5.60;;;;;;;;;;44039;281;3028300;-33
2024/01/31 03:55:51;;;;;;;7.40;5.80;;;;;;;;;;44019;293;3028357;-33
2024/01/31 03:57:38;;;;;;;7.80;5.70;;;;;;;;;;43481;277;3027598;-33
2024/01/31 03:59:23;;;;;;;7.30;5.50;;;;;;;;;;43919;281;3028597;-32
2024/01/31 04:01:09;;;;;;;7.50;5.60;;;;;;;;;;43292;284;3028573;-32
2024/01/31 04:02:54;;;;;;;7.30;5.40;;;;;;;;;;43305;284;3027992;-32
2024/01/31 04:04:39;;;;;;;7.80;5.70;;;;;;;;;;43311;284;3028519;-32
2024/01/31 04:06:24;;;;;;;7.40;5.40;;;;;;;;;;43286;284;3028888;-32
2024/01/31 04:08:10;;;;;;;7.60;5.30;;;;;;;;;;43414;277;3028047;-32
2024/01/31 04:09:56;;;;;;;7.30;5.50;;;;;;;;;;43293;284;3028182;-32
2024/01/31 04:11:41;;;;;;;8.60;5.90;;;;;;;;;;43297;293;3028336;-32
2024/01/31 04:13:26;;;;;;;7.60;5.40;;;;;;;;;;43273;280;3028564;-32
2024/01/31 04:15:12;;;;;;;7.70;5.50;;;;;;;;;;43306;273;3028665;-32
2024/01/31 04:16:57;;;;;;;7.40;5.40;;;;;;;;;;43316;284;3028135;-32
2024/01/31 04:18:43;;;;;;;7.20;5.50;;;;;;;;;;43306;284;3029926;-32
2024/01/31 04:20:28;;;;;;;8.10;5.50;;;;;;;;;;43303;284;3028924;-32
2024/01/31 04:22:13;;;;;;;7.70;5.30;;;;;;;;;;43304;292;3028806;-32
2024/01/31 04:23:57;;;;;;;7.10;5.60;;;;;;;;;;43312;284;3028684;-32
2024/01/31 04:25:42;;;;;;;8.40;5.70;;;;;;;;;;43284;285;3028401;-32
2024/01/31 04:27:28;;;;;;;7.60;5.60;;;;;;;;;;43287;284;3027860;-32
2024/01/31 04:29:13;;;;;;;8.60;5.70;;;;;;;;;;43253;294;3028836;-32
2024/01/31 04:30:57;;;;;;;7.80;6.10;;;;;;;;;;43290;285;3028517;-32
2024/01/31 04:32:42;;;;;;;7.90;5.80;;;;;;;;;;43287;293;3027967;-32
2024/01/31 04:34:29;;;;;;;8.10;5.90;;;;;;;;;;43293;284;3034301;-32
2024/01/31 04:36:14;;;;;;;8.00;5.80;;;;;;;;;;43286;277;3028954;-32
2024/01/31 04:37:59;;;;;;;8.40;6.00;;;;;;;;;;43294;284;3027569;-32
2024/01/31 04:39:44;;;;;;;9.30;6.00;;;;;;;;;;43301;284;3028176;-32
2024/01/31 04:41:29;;;;;;;8.50;5.70;;;;;;;;;;43320;277;3028362;-32
2024/01/31 04:43:17;;;;;;;8.00;5.70;;;;;;;;;;43274;268;3028124;-32
2024/01/31 04:45:03;;;;;;;8.30;6.20;;;;;;;;;;43363;286;3027815;-32
2024/01/31 04:46:49;;;;;;;7.80;5.40;;;;;;;;;;43414;293;3028145;-32
2024/01/31 04:48:34;;;;;;;7.50;5.90;;;;;;;;;;43319;281;3028787;-32
2024/01/31 04:50:19;;;;;;;8.00;5.80;;;;;;;;;;43345;284;3028036;-32
2024/01/31 04:52:06;;;;;;;8.10;5.70;;;;;;;;;;43324;284;3028847;-32
2024/01/31 04:53:51;;;;;;;8.00;6.00;;;;;;;;;;43286;281;3028077;-32
2024/01/31 04:55:36;;;;;;;9.50;6.10;;;;;;;;;;43308;284;3027666;-32
2024/01/31 04:57:21;;;;;;;7.70;5.50;;;;;;;;;;43323;284;3028248;-32
2024/01/31 04:59:06;;;;;;;8.10;5.90;;;;;;;;;;43347;284;3028189;-32
2024/01/31 05:00:51;;;;;;;8.10;5.80;;;;;;;;;;43319;284;3028841;-32
2024/01/31 05:02:36;;;;;;;7.40;5.70;;;;;;;;;;43297;292;3027694;-32
2024/01/31 05:04:22;;;;;;;8.40;5.80;;;;;;;;;;43291;284;3028002;-32
2024/01/31 05:06:11;;;;;;;8.80;5.80;;;;;;;;;;43332;281;3028158;-32
2024/01/31 05:07:56;;;;;;;8.40;5.80;;;;;;;;;;43301;284;3028122;-32
2024/01/31 05:09:43;;;;;;;8.50;5.90;;;;;;;;;;43325;284;3027696;-32
2024/01/31 05:11:28;;;;;;;7.90;5.60;;;;;;;;;;43325;284;3028406;-32
2024/01/31 05:13:13;;;;;;;8.30;6.00;;;;;;;;;;43310;284;3028394;-32
2024/01/31 05:14:58;;;;;;;7.80;6.00;;;;;;;;;;43287;284;3027902;-32
2024/01/31 05:16:45;;;;;;;7.90;6.00;;;;;;;;;;43313;292;3027957;-32
2024/01/31 05:18:30;;;;;;;8.70;6.40;;;;;;;;;;43327;292;3028331;-32
2024/01/31 05:20:15;;;;;;;8.10;6.20;;;;;;;;;;43315;284;3027698;-32
2024/01/31 05:22:01;;;;;;;7.60;5.70;;;;;;;;;;43335;284;3028613;-32
2024/01/31 05:23:46;;;;;;;7.80;6.20;;;;;;;;;;43314;284;3028295;-32
2024/01/31 05:25:31;;;;;;;8.70;6.10;;;;;;;;;;43310;284;3034767;-32
2024/01/31 05:27:16;;;;;;;7.80;6.00;;;;;;;;;;43300;284;3028240;-32
2024/01/31 05:29:01;;;;;;;7.50;5.80;;;;;;;;;;43308;284;3028017;-32
2024/01/31 05:30:47;;;;;;;8.00;5.90;;;;;;;;;;43300;281;3028654;-32
2024/01/31 05:32:32;;;;;;;8.00;5.90;;;;;;;;;;43997;284;3027913;-32
2024/01/31 05:34:17;;;;;;;8.80;6.00;;;;;;;;;;43633;284;3027498;-32
2024/01/31 05:36:03;;;;;;;8.60;5.90;;;;;;;;;;43318;284;3034119;-32
2024/01/31 05:37:48;;;;;;;8.60;6.10;;;;;;;;;;44043;281;3028562;-32
2024/01/31 05:39:35;;;;;;;8.40;5.60;;;;;;;;;;43924;280;3027779;-33
2024/01/31 05:41:21;;;;;;;8.40;6.30;;;;;;;;;;43293;284;3027932;-32
2024/01/31 05:43:06;;;;;;;7.70;5.70;;;;;;;;;;43326;284;3029237;-32
2024/01/31 05:44:53;;;;;;;8.00;6.00;;;;;;;;;;43288;284;3027979;-32
2024/01/31 05:46:41;;;;;;;8.60;6.00;;;;;;;;;;43240;284;3635574;-33
2024/01/31 05:48:28;;;;;;;7.60;5.80;;;;;;;;;;43195;286;3028698;-33
2024/01/31 05:50:14;;;;;;;7.70;5.60;;;;;;;;;;43301;284;3027719;-32
2024/01/31 05:51:59;;;;;;;7.60;5.90;;;;;;;;;;43609;273;3028803;-32
2024/01/31 05:53:44;;;;;;;9.30;6.10;;;;;;;;;;43309;284;3028033;-32
2024/01/31 05:55:30;;;;;;;7.20;5.50;;;;;;;;;;43285;277;3027859;-32
2024/01/31 05:57:16;;;;;;;7.90;6.40;;;;;;;;;;43333;284;3028212;-32
2024/01/31 05:59:00;;;;;;;8.00;5.80;;;;;;;;;;43326;284;3028312;-32
2024/01/31 06:00:46;;;;;;;8.10;6.30;;;;;;;;;;43305;284;3028172;-32
2024/01/31 06:02:31;;;;;;;7.70;5.70;;;;;;;;;;43312;276;3028417;-32
2024/01/31 06:04:18;;;;;;;7.90;5.80;;;;;;;;;;43322;284;3028335;-32
2024/01/31 06:06:04;;;;;;;7.70;6.10;;;;;;;;;;43268;284;3028378;-32
2024/01/31 06:07:50;;;;;;;7.60;5.70;;;;;;;;;;43305;284;3028049;-32
2024/01/31 06:09:35;;;;;;;7.40;5.80;;;;;;;;;;43355;284;3028372;-32
2024/01/31 06:11:21;;;;;;;7.90;5.90;;;;;;;;;;43308;292;3028042;-32
2024/01/31 06:13:06;;;;;;;7.40;6.00;;;;;;;;;;43314;280;3028671;-32
2024/01/31 06:14:51;;;;;;;8.10;6.00;;;;;;;;;;43298;284;3028646;-32
2024/01/31 06:16:36;;;;;;;8.00;5.80;;;;;;;;;;43270;284;3027790;-32
2024/01/31 06:18:22;;;;;;;8.10;6.10;;;;;;;;;;43316;292;3028457;-33
2024/01/31 06:20:13;;;;;;;7.70;5.70;;;;;;;;;;43339;284;3027525;-32
2024/01/31 06:21:59;;;;;;;8.40;5.90;;;;;;;;;;43588;284;3028448;-32
2024/01/31 06:23:46;;;;;;;7.30;5.70;;;;;;;;;;43294;284;3028477;-32
2024/01/31 06:25:32;;;;;;;7.80;6.20;;;;;;;;;;43295;281;3028377;-32
2024/01/31 06:27:19;;;;;;;7.40;6.00;;;;;;;;;;43309;284;3034902;-32
2024/01/31 06:29:04;;;;;;;8.30;6.10;;;;;;;;;;43311;284;3027891;-32
2024/01/31 06:30:58;;;;;;;7.50;6.00;;;;;;;;;;43329;284;3027681;-32
2024/01/31 06:32:47;;;;;;;8.00;6.00;;;;;;;;;;43639;286;3027929;-32
2024/01/31 06:34:33;;;;;;;7.70;5.70;;;;;;;;;;43304;284;3030363;-33
2024/01/31 06:36:19;;;;;;;7.80;6.10;;;;;;;;;;43285;284;3028812;-33
2024/01/31 06:38:05;;;;;;;7.70;5.70;;;;;;;;;;43312;284;3028331;-32
2024/01/31 06:39:50;;;;;;;8.00;6.00;;;;;;;;;;43294;284;3027802;-32
2024/01/31 06:41:36;;;;;;;7.90;5.80;;;;;;;;;;43316;284;3028646;-32
2024/01/31 06:43:21;;;;;;;8.10;5.90;;;;;;;;;;43303;273;3029464;-32
2024/01/31 06:45:08;;;;;;;8.30;6.00;;;;;;;;;;43307;281;3027937;-32
2024/01/31 06:46:55;;;;;;;8.20;6.00;;;;;;;;;;43777;284;3027904;-33
2024/01/31 06:48:41;;;;;;;8.00;6.00;;;;;;;;;;43318;284;3027972;-33
2024/01/31 06:50:26;;;;;;;7.60;5.70;;;;;;;;;;43328;284;3028496;-32
2024/01/31 06:52:15;;;;;;;8.10;5.90;;;;;;;;;;43312;284;3028671;-32
2024/01/31 06:54:05;;;;;;;7.30;5.80;;;;;;;;;;43188;294;3028223;-33
2024/01/31 06:55:50;;;;;;;8.50;6.20;;;;;;;;;;43316;284;3028422;-32
2024/01/31 06:57:37;;;;;;;8.00;6.00;;;;;;;;;;43277;288;3028360;-32
2024/01/31 06:59:22;;;;;;;7.90;5.90;;;;;;;;;;43305;292;3028347;-32
2024/01/31 07:01:07;;;;;;;7.60;5.90;;;;;;;;;;43301;292;3028202;-32
2024/01/31 07:02:55;;;;;;;7.40;5.50;;;;;;;;;;43374;284;3028073;-32
2024/01/31 07:04:40;;;;;;;8.10;6.10;;;;;;;;;;43386;284;3028137;-32
2024/01/31 07:06:26;;;;;;;7.50;5.80;;;;;;;;;;43297;284;3027494;-32
2024/01/31 07:08:12;;;;;;;8.10;5.90;;;;;;;;;;43296;273;3034490;-32
2024/01/31 07:10:00;;;;;;;8.40;6.10;;;;;;;;;;43293;277;3029993;-32
2024/01/31 07:11:47;;;;;;;7.70;6.00;;;;;;;;;;43332;284;3028887;-32
2024/01/31 07:13:32;;;;;;;7.70;6.10;;;;;;;;;;43290;284;3027971;-32
2024/01/31 07:15:19;;;;;;;8.00;6.10;;;;;;;;;;43294;292;3028479;-32
2024/01/31 07:17:04;;;;;;;7.80;6.10;;;;;;;;;;43200;283;3028224;-32
2024/01/31 07:18:49;;;;;;;8.00;5.90;;;;;;;;;;43299;284;3027718;-33
2024/01/31 07:20:36;;;;;;;7.90;6.20;;;;;;;;;;43303;293;3029205;-32
2024/01/31 07:22:21;;;;;;;8.30;6.00;;;;;;;;;;43307;284;3028760;-33
2024/01/31 07:24:07;;;;;;;7.70;5.60;;;;;;;;;;43327;284;3028356;-33
2024/01/31 07:26:08;;;;;;;8.10;6.10;;;;;;;;;;43281;284;3029724;-33
2024/01/31 07:27:53;;;;;;;8.00;6.10;;;;;;;;;;43248;284;3027892;-33
2024/01/31 07:29:39;;;;;;;7.90;5.90;;;;;;;;;;43306;284;3028132;-33
2024/01/31 07:31:26;;;;;;;8.30;6.50;;;;;;;;;;43324;284;3029102;-33
2024/01/31 07:33:11;;;;;;;7.90;6.20;;;;;;;;;;43309;284;3028493;-33
2024/01/31 07:34:57;;;;;;;7.90;5.90;;;;;;;;;;43291;281;3029732;-33
2024/01/31 07:36:45;;;;;;;8.60;6.30;;;;;;;;;;43312;284;3028356;-33
2024/01/31 07:38:30;;;;;;;7.70;5.90;;;;;;;;;;43280;284;3028996;-33
2024/01/31 07:40:16;;;;;;;8.00;6.20;;;;;;;;;;43327;276;3030375;-33
2024/01/31 07:42:01;;;;;;;8.30;6.10;;;;;;;;;;43402;284;3028056;-33
2024/01/31 07:43:48;;;;;;;8.10;6.30;;;;;;;;;;43325;284;3030001;-33
2024/01/31 07:45:34;;;;;;;8.60;6.30;;;;;;;;;;43340;284;3028727;-33
2024/01/31 07:47:21;;;;;;;9.80;6.50;;;;;;;;;;43280;284;3028755;-33
2024/01/31 07:49:08;;;;;;;8.80;6.30;;;;;;;;;;43272;284;3035012;-33
2024/01/31 07:50:54;;;;;;;9.00;6.30;;;;;;;;;;43307;284;3028934;-33
2024/01/31 07:52:42;;;;;;;9.20;6.30;;;;;;;;;;43277;284;3028154;-33
2024/01/31 07:54:27;;;;;;;9.20;6.50;;;;;;;;;;43315;292;3027530;-33
2024/01/31 07:56:15;;;;;;;9.40;6.50;;;;;;;;;;43307;284;3028701;-33
2024/01/31 07:58:00;;;;;;;9.70;7.30;;;;;;;;;;43269;277;3028212;-33
2024/01/31 07:59:47;;;;;;;12.10;7.70;;;;;;;;;;43312;292;3028697;-33
2024/01/31 08:01:33;;;;;;;11.40;7.70;;;;;;;;;;43299;284;3029369;-33
2024/01/31 08:03:19;;;;;;;10.20;7.80;;;;;;;;;;43314;292;3028031;-33
2024/01/31 08:05:06;;;;;;;10.30;7.70;;;;;;;;;;43203;286;3027866;-33
2024/01/31 08:06:51;;;;;;;11.30;7.60;;;;;;;;;;43254;284;3028179;-33
2024/01/31 08:08:37;;;;;;;9.90;7.50;;;;;;;;;;43284;292;3028403;-33
2024/01/31 08:10:23;;;;;;;9.60;7.50;;;;;;;;;;43633;284;3028034;-33
2024/01/31 08:12:09;;;;;;;9.80;7.60;;;;;;;;;;43317;284;3028111;-33
2024/01/31 08:13:56;;;;;;;9.40;7.60;;;;;;;;;;43695;284;3028917;-33
2024/01/31 08:15:42;;;;;;;9.70;7.70;;;;;;;;;;43347;281;3028651;-33
2024/01/31 08:17:28;;;;;;;11.00;7.70;;;;;;;;;;43306;284;3028557;-34
2024/01/31 08:19:14;;;;;;;10.70;7.60;;;;;;;;;;43273;284;3028084;-34
2024/01/31 08:20:59;;;;;;;11.30;7.80;;;;;;;;;;43437;292;3027553;-34
2024/01/31 08:22:44;;;;;;;11.10;7.90;;;;;;;;;;43292;284;3028477;-34
2024/01/31 08:24:29;;;;;;;10.80;7.70;;;;;;;;;;43325;284;3028193;-34
2024/01/31 08:26:22;;;;;;;10.70;7.50;;;;;;;;;;43310;273;3028942;-34
2024/01/31 08:28:08;;;;;;;10.40;7.80;;;;;;;;;;43373;284;3028127;-34
2024/01/31 08:29:54;;;;;;;11.00;7.60;;;;;;;;;;43386;284;3034139;-34
2024/01/31 08:31:39;;;;;;;9.60;7.30;;;;;;;;;;43301;284;3028383;-34
2024/01/31 08:33:26;;;;;;;10.00;7.30;;;;;;;;;;43309;284;3027944;-34
2024/01/31 08:35:12;;;;;;;9.90;7.50;;;;;;;;;;43358;284;3028055;-34
2024/01/31 08:36:57;;;;;;;10.20;7.90;;;;;;;;;;43471;284;3028400;-34
2024/01/31 08:38:43;;;;;;;10.90;7.60;;;;;;;;;;43268;285;3027756;-34
2024/01/31 08:40:29;;;;;;;10.30;7.50;;;;;;;;;;43301;293;3035681;-34
2024/01/31 08:42:14;;;;;;;9.60;6.80;;;;;;;;;;43422;284;3028348;-34
2024/01/31 08:43:59;;;;;;;10.10;7.20;;;;;;;;;;43330;284;3028153;-34
2024/01/31 08:45:45;;;;;;;10.60;7.30;;;;;;;;;;43308;284;3027960;-34
2024/01/31 08:47:29;;;;;;;9.30;7.20;;;;;;;;;;43318;284;3028549;-34
2024/01/31 08:49:18;;;;;;;8.90;6.80;;;;;;;;;;43308;284;3029431;-34
2024/01/31 08:51:06;;;;;;;10.00;7.00;;;;;;;;;;43312;284;3028816;-34
2024/01/31 08:52:55;;;;;;;9.60;7.00;;;;;;;;;;43421;284;3029700;-34
2024/01/31 08:54:42;;;;;;;9.30;7.00;;;;;;;;;;43309;284;3028525;-34
2024/01/31 08:56:27;;;;;;;9.70;7.10;;;;;;;;;;43318;276;3028193;-34
2024/01/31 08:58:12;;;;;;;10.20;7.00;;;;;;;;;;43304;284;3028162;-34
2024/01/31 08:59:58;;;;;;;10.50;7.40;;;;;;;;;;43294;284;3029439;-34
2024/01/31 09:01:50;;;;;;;9.90;7.20;;;;;;;;;;43284;284;3028524;-34
2024/01/31 09:03:35;;;;;;;9.40;6.70;;;;;;;;;;43624;292;3027855;-32
2024/01/31 09:05:22;;;;;;;9.90;6.70;;;;;;;;;;43321;284;3029507;-31
2024/01/31 09:07:08;;;;;;;9.60;7.20;;;;;;;;;;43283;284;3028228;-32
2024/01/31 09:08:53;;;;;;;8.40;6.70;;;;;;;;;;43476;292;3028032;-34
2024/01/31 09:10:46;;;;;;;10.10;6.90;;;;;;;;;;43286;284;3028507;-32
2024/01/31 09:12:30;;;;;;;9.70;7.10;;;;;;;;;;43305;284;3027549;-32
2024/01/31 09:14:16;;;;;;;9.80;6.70;;;;;;;;;;43289;281;3029600;-32
2024/01/31 09:16:01;;;;;;;9.20;6.90;;;;;;;;;;43344;284;3028147;-32
2024/01/31 09:17:48;;;;;;;9.20;6.80;;;;;;;;;;43313;277;3028783;-32
2024/01/31 09:19:34;;;;;;;9.20;6.60;;;;;;;;;;43305;284;3028745;-32
2024/01/31 09:21:26;;;;;;;9.70;6.70;;;;;;;;;;43628;276;3027616;-32
2024/01/31 09:25:14;;;;;;;9.40;6.70;;;;;;;;;;43280;272;3030095;-33
2024/01/31 09:26:59;;;;;;;9.00;6.60;;;;;;;;;;43326;285;3028370;-32
2024/01/31 09:28:50;;;;;;;8.90;6.40;;;;;;;;;;43299;285;3027834;-32
2024/01/31 09:30:35;;;;;;;9.30;6.80;;;;;;;;;;43286;285;3028265;-34
2024/01/31 09:32:22;;;;;;;9.10;6.80;;;;;;;;;;43300;292;3029367;-34
2024/01/31 09:34:10;;;;;;;10.10;7.10;;;;;;;;;;43287;285;3028796;-33
2024/01/31 09:35:55;;;;;;;10.80;7.00;;;;;;;;;;43505;284;3028328;-32
2024/01/31 09:37:39;;;;;;;8.30;6.80;;;;;;;;;;43330;284;3028171;-32
2024/01/31 09:39:26;;;;;;;9.40;6.80;;;;;;;;;;43298;280;3028947;-33
2024/01/31 09:41:14;;;;;;;9.60;6.90;;;;;;;;;;43279;277;3027859;-32
2024/01/31 09:42:59;;;;;;;9.70;6.90;;;;;;;;;;43257;285;3028371;-32
2024/01/31 09:44:45;;;;;;;8.60;6.90;;;;;;;;;;43276;281;3028820;-32
2024/01/31 09:46:32;;;;;;;8.70;6.60;;;;;;;;;;43291;284;3030088;-32
2024/01/31 09:48:18;;;;;;;9.20;6.90;;;;;;;;;;43291;285;3028103;-32
2024/01/31 09:50:04;;;;;;;9.20;7.10;;;;;;;;;;43305;293;3028403;-32
2024/01/31 09:51:49;;;;;;;8.40;6.50;;;;;;;;;;43268;285;3035873;-32
2024/01/31 09:53:37;;;;;;;8.40;6.80;;;;;;;;;;43323;284;3029209;-32
2024/01/31 09:55:24;;;;;;;8.70;7.10;;;;;;;;;;43508;284;3028652;-32
2024/01/31 09:57:11;;;;;;;8.30;6.50;;;;;;;;;;43259;285;3028512;-33
2024/01/31 09:58:56;;;;;;;9.80;7.30;;;;;;;;;;43293;285;3028587;-33
2024/01/31 10:00:42;;;;;;;9.80;7.10;;;;;;;;;;43308;285;3027954;-33
2024/01/31 10:02:29;;;;;;;8.80;6.90;;;;;;;;;;43448;285;3028636;-32
2024/01/31 10:04:15;;;;;;;10.00;7.10;;;;;;;;;;43322;277;3028507;-31
2024/01/31 10:06:03;;;;;;;9.30;6.90;;;;;;;;;;43303;285;3028258;-32
2024/01/31 10:07:52;;;;;;;9.40;7.30;;;;;;;;;;43317;285;3028143;-32
2024/01/31 10:09:40;;;;;;;9.60;6.90;;;;;;;;;;43317;293;3028480;-31
2024/01/31 10:11:27;;;;;;;8.50;6.80;;;;;;;;;;43542;285;3028323;-31
2024/01/31 10:13:13;;;;;;;9.20;7.50;;;;;;;;;;43772;285;3028774;-32
2024/01/31 10:14:59;;;;;;;8.90;7.20;;;;;;;;;;43306;280;3029102;-33
2024/01/31 10:16:44;;;;;;;9.00;7.20;;;;;;;;;;43292;285;3027576;-33
2024/01/31 10:18:31;;;;;;;9.70;7.20;;;;;;;;;;43404;277;3028488;-32
2024/01/31 10:20:17;;;;;;;8.70;7.10;;;;;;;;;;43305;285;3028994;-32
2024/01/31 10:22:06;;;;;;;8.50;6.90;;;;;;;;;;43303;285;3029521;-32
2024/01/31 10:24:02;;;;;;;8.60;7.10;;;;;;;;;;43302;285;3028497;-32
2024/01/31 10:25:48;;;;;;;8.60;7.30;;;;;;;;;;43771;279;3028936;-32
2024/01/31 10:27:39;;;;;;;9.20;6.90;;;;;;;;;;43292;293;3028060;-32
2024/01/31 10:29:28;;;;;;;8.60;6.70;;;;;;;;;;43276;292;3028724;-32